Terminal Aerodrome Forecast
Issued by NWS

Home | Current Version | Previous Version | Text Only | Print | Product List | Glossary On
Versions: 1 2 3 4 5 6 7 8 9 10 11 12 13 14 15 16 17 18 19 20
000
FTUS43 KSGF 071500 AAB
TAFJLN
TAF AMD
KJLN 071535Z 0716/0812 35008KT 2SM -SHRA BR VCTS BKN004CB OVC015
     FM071800 02009KT 2SM -SHRA BR BKN008
     FM080000 04006KT 4SM -SHRA BKN009 OVC025
     FM080800 10006KT 4SM -SHRA OVC009=

USA.gov is the U.S. government's official web portal to all federal, state and local government web resources and services.